createdAt,value
2023-03-12T00:00:49.333Z,99.90
2023-03-12T00:03:17.981Z,99.90
2023-03-12T00:05:46.701Z,99.90
2023-03-12T00:08:16.713Z,99.90
2023-03-12T00:10:46.065Z,99.90
2023-03-12T00:13:14.036Z,99.90
2023-03-12T00:15:42.044Z,99.90
2023-03-12T00:18:10.123Z,99.90
2023-03-12T00:20:38.116Z,99.90
2023-03-12T00:23:06.105Z,99.90
2023-03-12T00:25:37.021Z,99.90
2023-03-12T00:28:06.729Z,99.90
2023-03-12T00:30:34.743Z,99.90
2023-03-12T00:33:02.777Z,99.90
2023-03-12T00:35:30.830Z,99.90
2023-03-12T00:37:58.842Z,99.90
2023-03-12T00:40:27.112Z,99.90
2023-03-12T00:42:55.077Z,99.90
2023-03-12T00:45:24.407Z,99.90
2023-03-12T00:47:52.418Z,99.90
2023-03-12T00:50:20.853Z,99.90
2023-03-12T00:52:48.943Z,99.90
2023-03-12T00:55:17.216Z,99.90
2023-03-12T00:57:45.223Z,99.90
2023-03-12T01:00:14.339Z,99.90
2023-03-12T01:02:43.725Z,99.90
2023-03-12T01:05:13.942Z,99.90
2023-03-12T01:07:42.260Z,99.90
2023-03-12T01:10:12.809Z,99.90
2023-03-12T01:12:40.854Z,99.90
2023-03-12T01:15:10.010Z,99.90
2023-03-12T01:17:38.206Z,99.90
2023-03-12T01:20:09.420Z,99.90
2023-03-12T01:22:38.274Z,99.90
2023-03-12T01:25:06.863Z,99.90
2023-03-12T01:27:34.914Z,99.90
2023-03-12T01:30:03.056Z,99.90
2023-03-12T01:32:31.123Z,99.90
2023-03-12T01:35:02.085Z,99.90
2023-03-12T01:37:32.750Z,99.90
2023-03-12T01:40:00.927Z,99.90
2023-03-12T01:42:28.929Z,99.90
2023-03-12T01:44:58.933Z,99.90
2023-03-12T01:47:27.426Z,99.90
2023-03-12T01:49:57.051Z,99.90
2023-03-12T01:52:28.550Z,99.90
2023-03-12T01:55:02.584Z,99.90
2023-03-12T01:57:35.923Z,99.90
2023-03-12T02:00:11.819Z,99.90
2023-03-12T02:02:41.145Z,99.90
2023-03-12T02:05:16.253Z,99.90
2023-03-12T02:07:44.370Z,99.90
2023-03-12T02:10:13.773Z,99.90
2023-03-12T02:12:42.451Z,99.90
2023-03-12T02:15:23.530Z,99.90
2023-03-12T02:17:51.486Z,99.90
2023-03-12T02:20:25.216Z,99.90
2023-03-12T02:23:01.952Z,99.90
2023-03-12T02:25:37.334Z,99.90
2023-03-12T02:28:08.523Z,99.90
2023-03-12T02:30:37.621Z,99.90
2023-03-12T02:33:08.516Z,99.90
2023-03-12T02:35:37.145Z,99.90
2023-03-12T02:38:25.588Z,99.90
2023-03-12T02:40:56.720Z,99.90
2023-03-12T02:43:24.876Z,99.90
2023-03-12T02:45:53.104Z,99.90
2023-03-12T02:48:21.196Z,99.90
2023-03-12T02:50:49.197Z,99.90
2023-03-12T02:53:17.234Z,99.90
2023-03-12T02:55:45.326Z,99.90
2023-03-12T02:58:14.652Z,99.90
2023-03-12T03:00:42.677Z,99.90
2023-03-12T03:03:10.637Z,99.90
2023-03-12T03:05:39.629Z,99.90
2023-03-12T03:08:08.906Z,99.90
2023-03-12T03:10:36.877Z,99.90
2023-03-12T03:13:04.897Z,99.90
2023-03-12T03:15:34.286Z,99.90
2023-03-12T03:18:03.930Z,99.90
2023-03-12T03:20:32.342Z,99.90
2023-03-12T03:23:00.287Z,99.90
2023-03-12T03:25:28.927Z,99.90
2023-03-12T03:27:56.982Z,99.90
2023-03-12T03:30:25.132Z,99.90
2023-03-12T03:32:54.535Z,99.90
2023-03-12T03:35:24.192Z,99.90
2023-03-12T03:37:52.184Z,99.90
2023-03-12T03:40:20.305Z,99.90
2023-03-12T03:42:48.351Z,99.90
2023-03-12T03:45:16.307Z,99.90
2023-03-12T03:47:44.290Z,99.90
2023-03-12T03:50:15.373Z,99.90
2023-03-12T03:52:43.378Z,99.90
2023-03-12T03:55:11.640Z,99.90
2023-03-12T03:57:39.650Z,99.90
2023-03-12T04:00:13.071Z,99.90
2023-03-12T04:02:41.341Z,99.90
2023-03-12T04:05:10.420Z,99.90
2023-03-12T04:07:39.944Z,99.90
2023-03-12T04:10:08.897Z,99.90
2023-03-12T04:12:43.865Z,99.90
2023-03-12T04:15:12.015Z,99.90
2023-03-12T04:17:40.079Z,99.90
2023-03-12T04:20:09.508Z,99.90
2023-03-12T04:22:38.994Z,99.90
2023-03-12T04:25:07.920Z,99.90
2023-03-12T04:27:36.859Z,99.90
2023-03-12T04:30:05.560Z,99.90
2023-03-12T04:32:33.579Z,99.90
2023-03-12T04:35:01.570Z,99.90
2023-03-12T04:37:29.746Z,99.90
2023-03-12T04:39:59.053Z,99.90
2023-03-12T04:42:27.152Z,99.90
2023-03-12T04:44:55.201Z,99.90
2023-03-12T04:47:23.199Z,99.90
2023-03-12T04:49:51.156Z,99.90
2023-03-12T04:52:19.177Z,99.90
2023-03-12T04:54:48.139Z,99.90
2023-03-12T04:57:17.545Z,99.90
2023-03-12T04:59:45.762Z,99.90
2023-03-12T05:02:13.874Z,99.90
2023-03-12T05:04:41.918Z,99.90
2023-03-12T05:07:09.936Z,99.90
2023-03-12T05:09:37.910Z,99.90
2023-03-12T05:12:06.499Z,99.90
2023-03-12T05:14:35.829Z,99.90
2023-03-12T05:17:05.226Z,99.90
2023-03-12T05:19:33.298Z,99.90
2023-03-12T05:22:01.277Z,99.90
2023-03-12T05:24:29.299Z,99.90
2023-03-12T05:26:57.268Z,99.90
2023-03-12T05:29:25.479Z,99.90
2023-03-12T05:32:01.421Z,99.90
2023-03-12T05:34:30.349Z,99.90
2023-03-12T05:37:00.133Z,99.90
2023-03-12T05:39:28.788Z,99.90
2023-03-12T05:41:57.333Z,99.90
2023-03-12T05:44:26.370Z,99.90
2023-03-12T05:46:57.149Z,99.90
2023-03-12T05:49:27.922Z,99.90
2023-03-12T05:51:55.951Z,99.90
2023-03-12T05:54:24.391Z,99.90
2023-03-12T05:56:52.950Z,99.90
2023-03-12T05:59:20.967Z,99.90
2023-03-12T06:01:49.034Z,99.90
2023-03-12T06:04:17.019Z,99.90
2023-03-12T06:06:46.452Z,99.90
2023-03-12T06:09:14.534Z,99.90
2023-03-12T06:11:42.490Z,99.90
2023-03-12T06:14:10.534Z,99.90
2023-03-12T06:16:38.657Z,99.90
2023-03-12T06:19:07.651Z,99.90
2023-03-12T06:21:38.160Z,99.90
2023-03-12T06:24:08.502Z,99.90
2023-03-12T06:26:36.519Z,99.90
2023-03-12T06:29:04.770Z,99.90
2023-03-12T06:31:32.863Z,99.90
2023-03-12T06:34:00.864Z,99.90
2023-03-12T06:36:28.836Z,99.90
2023-03-12T06:38:57.380Z,99.90
2023-03-12T06:41:27.078Z,99.90
2023-03-12T06:43:55.180Z,99.90
2023-03-12T06:46:25.200Z,99.90
2023-03-12T06:48:53.636Z,99.90
2023-03-12T06:51:21.760Z,99.90
2023-03-12T06:53:49.722Z,99.90
2023-03-12T06:56:17.840Z,99.90
2023-03-12T06:58:48.794Z,99.90
2023-03-12T07:01:16.766Z,99.90
2023-03-12T07:03:45.252Z,99.90
2023-03-12T07:06:17.561Z,99.90
2023-03-12T07:08:46.229Z,99.90
2023-03-12T07:11:14.609Z,99.90
2023-03-12T07:13:43.087Z,99.90
2023-03-12T07:16:12.996Z,99.90
2023-03-12T07:18:41.009Z,99.90
2023-03-12T07:21:09.010Z,99.90
2023-03-12T07:23:36.967Z,99.90
2023-03-12T07:26:06.146Z,99.90
2023-03-12T07:28:34.265Z,99.90
2023-03-12T07:31:02.975Z,99.90
2023-03-12T07:33:32.991Z,99.90
2023-03-12T07:36:15.417Z,99.90
2023-03-12T07:38:43.459Z,99.90
2023-03-12T07:41:11.452Z,99.90
2023-03-12T07:43:39.501Z,99.90
2023-03-12T07:46:07.549Z,99.90
2023-03-12T07:48:36.889Z,99.90
2023-03-12T07:51:05.246Z,99.90
2023-03-12T07:53:33.215Z,99.90
2023-03-12T07:56:01.275Z,99.90
2023-03-12T07:58:29.366Z,99.90
2023-03-12T08:00:57.883Z,99.90
2023-03-12T08:03:26.057Z,99.90
2023-03-12T08:06:00.331Z,99.90
2023-03-12T08:08:29.376Z,99.90
2023-03-12T08:10:57.396Z,99.90
2023-03-12T08:13:25.894Z,99.90
2023-03-12T08:15:54.868Z,99.90
2023-03-12T08:18:42.997Z,99.90
2023-03-12T08:21:16.385Z,99.90
2023-03-12T08:23:44.584Z,99.90
2023-03-12T08:26:12.615Z,99.90
2023-03-12T08:28:40.867Z,99.90
2023-03-12T08:31:09.486Z,99.90
2023-03-12T08:33:41.123Z,99.90
2023-03-12T08:36:09.886Z,99.90
2023-03-12T08:38:39.229Z,99.90
2023-03-12T08:41:10.300Z,99.90
2023-03-12T08:43:38.266Z,99.90
2023-03-12T08:46:06.517Z,99.90
2023-03-12T08:48:34.868Z,99.90
2023-03-12T08:51:05.900Z,99.90
2023-03-12T08:53:35.770Z,99.90
2023-03-12T08:56:06.247Z,99.90
2023-03-12T08:58:34.197Z,99.90
2023-03-12T09:01:02.279Z,99.90
2023-03-12T09:03:30.286Z,99.90
2023-03-12T09:06:06.098Z,99.90
2023-03-12T09:08:52.875Z,99.90
2023-03-12T09:11:22.388Z,99.90
2023-03-12T09:14:16.827Z,99.90
2023-03-12T09:16:38.321Z,99.90
2023-03-12T09:19:06.625Z,99.90
2023-03-12T09:21:34.601Z,99.90
2023-03-12T09:24:02.586Z,99.90
2023-03-12T09:26:47.345Z,99.90
2023-03-12T09:29:15.353Z,99.90
2023-03-12T09:31:46.458Z,99.90
2023-03-12T09:34:14.537Z,99.90
2023-03-12T09:36:42.492Z,99.90
2023-03-12T09:39:10.779Z,99.90
2023-03-12T09:41:42.231Z,99.90
2023-03-12T09:44:18.866Z,99.90
2023-03-12T09:46:51.777Z,99.90
2023-03-12T09:49:24.095Z,99.90
2023-03-12T09:51:56.433Z,99.90
2023-03-12T09:54:29.291Z,99.90
2023-03-12T09:57:10.328Z,99.90
2023-03-12T09:59:39.717Z,99.90
2023-03-12T10:02:37.740Z,99.90
2023-03-12T10:05:12.084Z,99.90
2023-03-12T10:07:46.324Z,99.90
2023-03-12T10:10:36.389Z,99.90
2023-03-12T10:13:18.428Z,99.90
2023-03-12T10:16:03.554Z,99.90
2023-03-12T10:18:43.162Z,99.90
2023-03-12T10:21:21.139Z,99.90
2023-03-12T10:24:25.414Z,99.90
2023-03-12T10:26:55.652Z,99.90
2023-03-12T10:29:27.329Z,99.90
2023-03-12T10:32:01.671Z,99.90
2023-03-12T10:34:37.592Z,99.90
2023-03-12T10:37:15.625Z,99.90
2023-03-12T10:39:43.773Z,99.90
2023-03-12T10:42:16.992Z,99.90
2023-03-12T10:44:46.427Z,99.90
2023-03-12T10:47:36.380Z,99.90
2023-03-12T10:50:19.245Z,99.90
2023-03-12T10:52:49.338Z,99.90
2023-03-12T10:55:29.429Z,99.90
2023-03-12T10:57:58.440Z,99.90
2023-03-12T11:00:28.462Z,99.90
2023-03-12T11:03:03.807Z,99.90
2023-03-12T11:05:34.688Z,99.90
2023-03-12T11:08:04.788Z,99.90
2023-03-12T11:10:44.561Z,99.90
2023-03-12T11:13:31.125Z,99.90
2023-03-12T11:16:01.906Z,99.90
2023-03-12T11:18:34.328Z,99.90
2023-03-12T11:21:18.006Z,99.90
2023-03-12T11:23:48.613Z,99.90
2023-03-12T11:26:32.215Z,99.90
2023-03-12T11:29:04.150Z,99.90
2023-03-12T11:31:35.797Z,99.90
2023-03-12T11:34:08.315Z,99.90
2023-03-12T11:36:46.945Z,99.90
2023-03-12T11:39:27.736Z,99.90
2023-03-12T11:42:19.203Z,99.90
2023-03-12T11:45:17.171Z,99.90
2023-03-12T11:47:55.310Z,99.90
2023-03-12T11:50:34.561Z,99.90
2023-03-12T11:53:18.952Z,99.90
2023-03-12T11:55:58.566Z,99.90
2023-03-12T11:58:36.154Z,99.90
2023-03-12T12:01:11.021Z,99.90
2023-03-12T12:04:05.328Z,99.90
2023-03-12T12:06:48.331Z,99.90
2023-03-12T12:09:37.675Z,99.90
2023-03-12T12:12:30.539Z,99.90
2023-03-12T12:15:15.774Z,99.90
2023-03-12T12:18:01.394Z,99.90
2023-03-12T12:20:55.118Z,99.90
2023-03-12T12:23:37.508Z,99.90
2023-03-12T12:26:11.258Z,99.90
2023-03-12T12:29:03.929Z,99.90
2023-03-12T12:31:40.428Z,99.90
2023-03-12T12:34:27.292Z,99.90
2023-03-12T12:37:03.348Z,99.90
2023-03-12T12:39:36.448Z,99.90
2023-03-12T12:42:10.672Z,99.90
2023-03-12T12:44:43.449Z,99.90
2023-03-12T12:47:18.368Z,99.90
2023-03-12T12:49:50.264Z,99.90
2023-03-12T12:52:21.022Z,99.90
2023-03-12T12:55:01.133Z,99.90
2023-03-12T12:57:36.928Z,99.90
2023-03-12T13:00:22.194Z,99.90
2023-03-12T13:02:51.557Z,99.90
2023-03-12T13:05:23.013Z,99.90
2023-03-12T13:07:50.976Z,99.90
2023-03-12T13:10:58.078Z,99.90
2023-03-12T13:13:30.655Z,99.90
2023-03-12T13:16:30.816Z,99.90
2023-03-12T13:19:00.725Z,99.90
2023-03-12T13:21:39.724Z,99.90
2023-03-12T13:24:23.261Z,99.90
2023-03-12T13:26:58.752Z,99.90
2023-03-12T13:29:39.675Z,99.90
2023-03-12T13:32:30.749Z,99.90
2023-03-12T13:34:59.036Z,99.90
2023-03-12T13:37:46.756Z,99.90
2023-03-12T13:40:40.232Z,99.90
2023-03-12T13:43:15.160Z,99.90
2023-03-12T13:45:57.153Z,99.90
2023-03-12T13:48:26.088Z,99.90
2023-03-12T13:50:56.546Z,99.90
2023-03-12T13:53:27.481Z,99.90
2023-03-12T13:56:03.494Z,99.90
2023-03-12T13:58:39.942Z,99.90
2023-03-12T14:01:15.195Z,99.90
2023-03-12T14:03:48.104Z,99.90
2023-03-12T14:06:20.537Z,99.90
2023-03-12T14:09:15.842Z,99.90
2023-03-12T14:11:54.200Z,99.90
2023-03-12T14:14:54.873Z,99.90
2023-03-12T14:17:27.233Z,99.90
2023-03-12T14:20:01.378Z,99.90
2023-03-12T14:22:33.605Z,99.90
2023-03-12T14:25:06.109Z,99.90
2023-03-12T14:27:35.355Z,99.90
2023-03-12T14:30:13.082Z,98.40
2023-03-12T14:32:44.921Z,99.10
2023-03-12T14:35:20.673Z,99.90
2023-03-12T14:37:55.681Z,99.90
2023-03-12T14:40:26.811Z,99.90
2023-03-12T14:42:55.621Z,99.90
2023-03-12T14:45:24.155Z,99.90
2023-03-12T14:47:56.881Z,99.90
2023-03-12T14:50:27.832Z,99.90
2023-03-12T14:52:56.957Z,97.40
2023-03-12T14:55:26.708Z,96.80
2023-03-12T14:58:05.223Z,96.60
2023-03-12T15:00:33.873Z,98.80
2023-03-12T15:03:06.453Z,95.80
2023-03-12T15:05:35.070Z,94.10
2023-03-12T15:08:04.622Z,94.60
2023-03-12T15:10:34.623Z,95.20
2023-03-12T15:13:04.075Z,95.50
2023-03-12T15:15:37.936Z,96.90
2023-03-12T15:18:09.760Z,97.20
2023-03-12T15:20:38.193Z,96.70
2023-03-12T15:23:07.828Z,97.30
2023-03-12T15:25:36.226Z,97.10
2023-03-12T15:28:25.173Z,97.80
2023-03-12T15:31:11.750Z,95.90
2023-03-12T15:33:42.228Z,96.40
2023-03-12T15:36:31.097Z,96.50
2023-03-12T15:39:03.171Z,97.20
2023-03-12T15:41:44.015Z,98.80
2023-03-12T15:44:20.229Z,99.10
2023-03-12T15:46:49.788Z,98.90
2023-03-12T15:49:25.517Z,95.60
2023-03-12T15:52:03.162Z,94.10
2023-03-12T15:54:32.171Z,94.70
2023-03-12T15:57:21.123Z,97.20
2023-03-12T16:00:08.041Z,97.70
2023-03-12T16:02:37.524Z,99.10
2023-03-12T16:05:09.133Z,99.90
2023-03-12T16:07:37.116Z,99.90
2023-03-12T16:10:05.940Z,99.90
2023-03-12T16:12:34.292Z,99.90
2023-03-12T16:15:02.281Z,99.90
2023-03-12T16:17:30.326Z,99.90
2023-03-12T16:19:58.295Z,99.90
2023-03-12T16:22:27.610Z,99.90
2023-03-12T16:24:55.582Z,99.90
2023-03-12T16:27:32.337Z,99.90
2023-03-12T16:30:00.988Z,99.90
2023-03-12T16:32:30.016Z,99.90
2023-03-12T16:34:58.045Z,99.90
2023-03-12T16:37:27.741Z,99.90
2023-03-12T16:39:55.772Z,99.90
2023-03-12T16:42:23.967Z,99.90
2023-03-12T16:44:52.032Z,99.90
2023-03-12T16:47:20.056Z,99.90
2023-03-12T16:49:48.427Z,99.90
2023-03-12T16:52:18.818Z,99.90
2023-03-12T16:54:50.080Z,99.90
2023-03-12T16:57:24.726Z,99.90
2023-03-12T16:59:52.936Z,99.90
2023-03-12T17:02:21.552Z,99.90
2023-03-12T17:04:51.021Z,99.90
2023-03-12T17:07:19.158Z,99.90
2023-03-12T17:09:48.593Z,99.90
2023-03-12T17:12:22.967Z,99.90
2023-03-12T17:14:51.740Z,99.90
2023-03-12T17:17:19.714Z,99.90
2023-03-12T17:19:47.683Z,99.90
2023-03-12T17:22:15.731Z,99.90
2023-03-12T17:24:44.839Z,99.90
2023-03-12T17:27:15.494Z,99.90
2023-03-12T17:29:43.623Z,99.90
2023-03-12T17:32:11.735Z,99.90
2023-03-12T17:34:39.704Z,99.90
2023-03-12T17:37:07.801Z,99.90
2023-03-12T17:39:36.057Z,99.90
2023-03-12T17:42:04.673Z,99.90
2023-03-12T17:44:36.672Z,99.90
2023-03-12T17:47:04.766Z,99.90
2023-03-12T17:49:32.767Z,99.90
2023-03-12T17:52:02.961Z,99.90
2023-03-12T17:54:31.182Z,99.90
2023-03-12T17:56:59.104Z,99.90
2023-03-12T17:59:27.085Z,99.90
2023-03-12T18:01:56.836Z,99.90
2023-03-12T18:04:24.800Z,99.90
2023-03-12T18:06:53.978Z,99.90
2023-03-12T18:09:23.329Z,99.90
2023-03-12T18:11:51.354Z,99.90
2023-03-12T18:14:19.458Z,99.90
2023-03-12T18:16:47.434Z,99.90
2023-03-12T18:19:17.078Z,99.90
2023-03-12T18:21:45.076Z,99.90
2023-03-12T18:24:14.538Z,99.90
2023-03-12T18:26:42.785Z,99.90
2023-03-12T18:29:10.809Z,99.90
2023-03-12T18:31:39.043Z,99.90
2023-03-12T18:34:07.079Z,99.90
2023-03-12T18:36:36.768Z,99.90
2023-03-12T18:39:06.382Z,99.90
2023-03-12T18:41:34.721Z,99.90
2023-03-12T18:44:03.360Z,99.90
2023-03-12T18:46:31.384Z,99.90
2023-03-12T18:49:05.292Z,99.90
2023-03-12T18:51:33.473Z,99.90
2023-03-12T18:54:03.051Z,99.90
2023-03-12T18:56:31.264Z,99.90
2023-03-12T18:58:59.242Z,99.90
2023-03-12T19:01:27.411Z,99.90
2023-03-12T19:03:55.554Z,99.90
2023-03-12T19:06:23.521Z,99.90
2023-03-12T19:08:51.503Z,99.90
2023-03-12T19:11:20.819Z,99.90
2023-03-12T19:13:52.085Z,99.90
2023-03-12T19:16:22.570Z,99.90
2023-03-12T19:18:51.641Z,99.90
2023-03-12T19:21:19.766Z,99.90
2023-03-12T19:23:47.766Z,99.90
2023-03-12T19:26:16.089Z,99.90
2023-03-12T19:28:45.473Z,99.90
2023-03-12T19:31:15.366Z,99.90
2023-03-12T19:33:44.802Z,99.90
2023-03-12T19:36:15.830Z,99.90
2023-03-12T19:38:44.053Z,99.90
2023-03-12T19:41:12.498Z,99.90
2023-03-12T19:43:41.275Z,99.90
2023-03-12T19:46:10.632Z,99.90
2023-03-12T19:48:38.699Z,99.90
2023-03-12T19:51:07.475Z,99.90
2023-03-12T19:53:35.428Z,99.90
2023-03-12T19:56:03.386Z,99.90
2023-03-12T19:58:31.391Z,99.90
2023-03-12T20:01:00.436Z,99.90
2023-03-12T20:03:32.966Z,99.90
2023-03-12T20:06:01.284Z,99.90
2023-03-12T20:08:31.868Z,99.90
2023-03-12T20:11:04.206Z,99.90
2023-03-12T20:13:32.244Z,99.90
2023-03-12T20:16:00.792Z,99.90
2023-03-12T20:18:30.198Z,99.90
2023-03-12T20:20:58.172Z,99.90
2023-03-12T20:23:26.189Z,99.90
2023-03-12T20:25:54.474Z,99.90
2023-03-12T20:28:22.489Z,99.90
2023-03-12T20:30:55.589Z,99.90
2023-03-12T20:33:25.600Z,99.90
2023-03-12T20:36:26.587Z,99.90
2023-03-12T20:38:55.982Z,99.90
2023-03-12T20:41:24.717Z,99.90
2023-03-12T20:43:56.496Z,99.90
2023-03-12T20:46:25.144Z,99.90
2023-03-12T20:48:54.984Z,99.90
2023-03-12T20:51:24.730Z,99.90
2023-03-12T20:53:52.824Z,99.90
2023-03-12T20:56:22.170Z,99.90
2023-03-12T20:58:50.191Z,99.90
2023-03-12T21:01:18.335Z,99.90
2023-03-12T21:03:46.349Z,99.90
2023-03-12T21:06:14.341Z,99.90
2023-03-12T21:08:42.303Z,99.90
2023-03-12T21:11:11.053Z,99.90
2023-03-12T21:13:40.425Z,99.90
2023-03-12T21:16:10.983Z,99.90
2023-03-12T21:18:38.949Z,99.90
2023-03-12T21:21:08.705Z,99.90
2023-03-12T21:23:37.135Z,99.90
2023-03-12T21:26:09.182Z,99.90
2023-03-12T21:28:37.705Z,99.90
2023-03-12T21:31:10.144Z,99.90
2023-03-12T21:33:38.644Z,99.90
2023-03-12T21:36:08.393Z,99.90
2023-03-12T21:38:36.406Z,99.90
2023-03-12T21:41:07.077Z,99.90
2023-03-12T21:43:37.434Z,99.90
2023-03-12T21:46:08.419Z,99.90
2023-03-12T21:48:38.015Z,99.90
2023-03-12T21:51:07.614Z,99.90
2023-03-12T21:53:36.040Z,99.90
2023-03-12T21:56:05.235Z,99.90
2023-03-12T21:58:34.396Z,99.90
2023-03-12T22:01:09.316Z,99.90
2023-03-12T22:03:38.321Z,99.90
2023-03-12T22:06:07.209Z,99.90
2023-03-12T22:08:35.938Z,99.90
2023-03-12T22:11:04.500Z,99.90
2023-03-12T22:13:33.005Z,99.90
2023-03-12T22:16:03.279Z,99.90
2023-03-12T22:18:33.069Z,99.90
2023-03-12T22:21:03.249Z,99.90
2023-03-12T22:23:31.929Z,99.90
2023-03-12T22:26:01.929Z,99.90
2023-03-12T22:28:31.126Z,99.90
2023-03-12T22:31:00.003Z,99.90
2023-03-12T22:33:28.165Z,99.90
2023-03-12T22:35:58.210Z,99.90
2023-03-12T22:38:26.708Z,99.90
2023-03-12T22:40:55.922Z,99.90
2023-03-12T22:43:25.931Z,99.90
2023-03-12T22:45:54.374Z,99.90
2023-03-12T22:48:22.392Z,99.90
2023-03-12T22:50:54.583Z,99.90
2023-03-12T22:53:24.136Z,99.90
2023-03-12T22:55:58.254Z,99.90
2023-03-12T22:58:26.263Z,99.90
2023-03-12T23:01:00.558Z,99.90
2023-03-12T23:03:40.558Z,99.90
2023-03-12T23:06:11.683Z,99.90
2023-03-12T23:08:41.226Z,99.90
2023-03-12T23:11:10.685Z,99.90
2023-03-12T23:13:41.311Z,99.90
2023-03-12T23:16:11.866Z,99.90
2023-03-12T23:18:40.064Z,99.90
2023-03-12T23:21:11.273Z,99.90
2023-03-12T23:23:42.124Z,99.90
2023-03-12T23:26:13.872Z,99.90
2023-03-12T23:28:41.921Z,99.90
2023-03-12T23:31:11.366Z,99.90
2023-03-12T23:33:39.805Z,99.90
2023-03-12T23:36:10.666Z,99.90
2023-03-12T23:38:40.336Z,99.90
2023-03-12T23:41:09.942Z,99.90
2023-03-12T23:43:37.999Z,99.90
2023-03-12T23:46:08.206Z,99.90
2023-03-12T23:48:38.347Z,99.90
2023-03-12T23:51:09.231Z,99.90
2023-03-12T23:53:38.348Z,99.90
2023-03-12T23:56:09.868Z,99.90
2023-03-12T23:58:38.003Z,99.90
